createdAt,value
2016-09-28T00:00:34.006Z,12.07
2016-09-28T00:01:33.600Z,12.04
2016-09-28T00:03:34.086Z,12.05
2016-09-28T00:04:35.032Z,12.07
2016-09-28T00:05:48.486Z,12.05
2016-09-28T00:06:33.570Z,12.09
2016-09-28T00:07:33.564Z,12.01
2016-09-28T00:08:33.559Z,12.02
2016-09-28T00:09:33.550Z,12.09
2016-09-28T00:10:33.543Z,12.1
2016-09-28T00:11:33.537Z,12.04
2016-09-28T00:12:33.537Z,11.98
2016-09-28T00:13:33.525Z,11.95
2016-09-28T00:14:33.512Z,11.98
2016-09-28T00:15:33.513Z,11.95
2016-09-28T00:16:33.500Z,12.01
2016-09-28T00:17:33.491Z,11.96
2016-09-28T00:18:33.495Z,11.91
2016-09-28T00:19:33.487Z,11.95
2016-09-28T00:20:33.487Z,11.94
2016-09-28T00:21:33.476Z,11.91
2016-09-28T00:22:33.475Z,11.82
2016-09-28T00:23:33.471Z,11.91
2016-09-28T00:24:33.452Z,11.9
2016-09-28T00:25:33.448Z,11.83
2016-09-28T00:26:33.444Z,11.85
2016-09-28T00:27:33.436Z,11.8
2016-09-28T00:28:33.430Z,11.83
2016-09-28T00:29:33.428Z,11.85
2016-09-28T00:30:33.423Z,11.86
2016-09-28T00:31:33.415Z,11.79
2016-09-28T00:32:33.408Z,11.82
2016-09-28T00:33:33.398Z,11.79
2016-09-28T00:34:33.640Z,11.83
2016-09-28T00:35:33.383Z,11.85
2016-09-28T00:36:33.382Z,11.75
2016-09-28T00:37:33.374Z,11.64
2016-09-28T00:38:33.368Z,11.79
2016-09-28T00:39:33.610Z,11.76
2016-09-28T00:40:33.359Z,11.75
2016-09-28T00:41:33.343Z,11.69
2016-09-28T00:42:33.340Z,11.7
2016-09-28T00:43:33.333Z,11.72
2016-09-28T00:44:33.324Z,11.69
2016-09-28T00:45:33.320Z,11.7
2016-09-28T00:46:33.312Z,11.72
2016-09-28T00:47:33.310Z,11.67
2016-09-28T00:48:33.315Z,11.69
2016-09-28T00:49:33.293Z,11.7
2016-09-28T00:50:33.287Z,11.62
2016-09-28T00:51:33.281Z,11.64
2016-09-28T00:52:33.281Z,11.6
2016-09-28T00:53:33.276Z,11.58
2016-09-28T00:54:33.266Z,11.55
2016-09-28T00:55:33.259Z,11.55
2016-09-28T00:56:33.256Z,11.54
2016-09-28T00:57:33.248Z,11.54
2016-09-28T00:58:33.244Z,11.54
2016-09-28T00:59:33.243Z,11.51
2016-09-28T01:00:33.228Z,11.46
2016-09-28T01:01:33.218Z,11.47
2016-09-28T01:02:33.212Z,11.52
2016-09-28T01:03:36.361Z,11.46
2016-09-28T01:04:35.149Z,11.44
2016-09-28T01:05:33.193Z,11.42
2016-09-28T01:06:33.400Z,11.46
2016-09-28T01:07:33.184Z,11.44
2016-09-28T01:08:34.028Z,11.51
2016-09-28T01:09:33.173Z,11.39
2016-09-28T01:10:33.157Z,11.39
2016-09-28T01:11:48.079Z,11.42
2016-09-28T01:12:34.463Z,11.42
2016-09-28T01:13:33.494Z,11.49
2016-09-28T01:14:35.336Z,11.35
2016-09-28T01:15:34.546Z,11.44
2016-09-28T01:16:33.121Z,11.4
2016-09-28T01:17:33.395Z,11.37
2016-09-28T01:18:33.105Z,11.49
2016-09-28T01:19:33.105Z,11.4
2016-09-28T01:21:33.245Z,11.4
2016-09-28T01:23:33.720Z,11.36
2016-09-28T01:24:33.118Z,11.36
2016-09-28T01:25:33.064Z,11.42
2016-09-28T01:26:33.055Z,11.4
2016-09-28T01:27:33.043Z,11.39
2016-09-28T01:28:33.041Z,11.36
2016-09-28T01:29:33.037Z,11.35
2016-09-28T01:30:33.027Z,11.32
2016-09-28T01:31:33.022Z,11.35
2016-09-28T01:32:33.013Z,11.35
2016-09-28T01:33:33.006Z,11.33
2016-09-28T01:34:33.007Z,11.32
2016-09-28T01:35:32.996Z,11.25
2016-09-28T01:36:32.995Z,11.32
2016-09-28T01:37:32.989Z,11.35
2016-09-28T01:38:32.981Z,11.35
2016-09-28T01:39:32.969Z,11.4
2016-09-28T01:40:32.972Z,11.35
2016-09-28T01:41:32.964Z,11.32
2016-09-28T01:42:32.944Z,11.37
2016-09-28T01:43:32.957Z,11.32
2016-09-28T01:44:32.949Z,11.32
2016-09-28T01:45:32.927Z,11.36
2016-09-28T01:46:32.927Z,11.33
2016-09-28T01:47:32.911Z,11.39
2016-09-28T01:48:32.907Z,11.29
2016-09-28T01:49:32.898Z,11.24
2016-09-28T01:50:32.900Z,11.29
2016-09-28T01:51:32.905Z,11.33
2016-09-28T01:52:32.903Z,11.25
2016-09-28T01:53:32.888Z,11.32
2016-09-28T01:54:32.869Z,11.29
2016-09-28T01:55:32.867Z,11.25
2016-09-28T01:56:32.856Z,11.32
2016-09-28T01:57:32.852Z,11.24
2016-09-28T01:58:32.846Z,11.29
2016-09-28T01:59:32.834Z,11.32
2016-09-28T02:00:32.831Z,11.21
2016-09-28T02:01:32.820Z,11.22
2016-09-28T02:02:32.818Z,11.29
2016-09-28T02:03:32.804Z,11.21
2016-09-28T02:04:32.795Z,11.19
2016-09-28T02:05:32.795Z,11.33
2016-09-28T02:06:32.790Z,11.27
2016-09-28T02:07:32.777Z,11.29
2016-09-28T02:08:32.773Z,11.28
2016-09-28T02:09:32.771Z,11.32
2016-09-28T02:10:32.766Z,11.29
2016-09-28T02:11:32.747Z,11.27
2016-09-28T02:12:32.747Z,11.22
2016-09-28T02:13:32.744Z,11.19
2016-09-28T02:14:32.736Z,11.32
2016-09-28T02:15:32.729Z,11.17
2016-09-28T02:16:32.713Z,11.19
2016-09-28T02:17:32.717Z,11.24
2016-09-28T02:18:32.704Z,11.22
2016-09-28T02:19:32.701Z,11.17
2016-09-28T02:20:32.688Z,11.03
2016-09-28T02:22:33.951Z,11.18
2016-09-28T02:23:35.167Z,11.1
2016-09-28T02:24:32.868Z,11.04
2016-09-28T02:25:32.660Z,11.04
2016-09-28T02:26:32.650Z,11.1
2016-09-28T02:27:32.650Z,11.07
2016-09-28T02:28:32.747Z,11.09
2016-09-28T02:30:32.899Z,11.09
2016-09-28T02:31:34.320Z,11.09
2016-09-28T02:32:34.699Z,11.11
2016-09-28T02:33:34.087Z,11.1
2016-09-28T02:34:33.516Z,11.06
2016-09-28T02:35:33.345Z,11.04
2016-09-28T02:36:32.582Z,11.03
2016-09-28T02:37:32.577Z,10.99
2016-09-28T02:38:32.766Z,10.94
2016-09-28T02:39:47.482Z,10.97
2016-09-28T02:40:32.951Z,10.92
2016-09-28T02:41:47.462Z,10.88
2016-09-28T02:42:32.840Z,10.99
2016-09-28T02:43:32.541Z,10.99
2016-09-28T02:44:32.629Z,10.97
2016-09-28T02:45:32.626Z,10.96
2016-09-28T02:46:32.518Z,10.94
2016-09-28T02:47:32.508Z,11.02
2016-09-28T02:48:32.499Z,10.88
2016-09-28T02:49:32.498Z,10.96
2016-09-28T02:50:32.489Z,10.99
2016-09-28T02:51:32.483Z,10.94
2016-09-28T02:52:32.477Z,10.96
2016-09-28T02:53:32.469Z,10.92
2016-09-28T02:54:32.465Z,11.03
2016-09-28T02:55:32.448Z,10.89
2016-09-28T02:56:32.445Z,10.99
2016-09-28T02:57:32.442Z,10.88
2016-09-28T02:58:32.426Z,10.99
2016-09-28T02:59:32.430Z,10.94
2016-09-28T03:00:32.419Z,11.03
2016-09-28T03:01:32.411Z,11.06
2016-09-28T03:02:32.404Z,11.03
2016-09-28T03:03:32.400Z,11.15
2016-09-28T03:04:32.386Z,11.02
2016-09-28T03:05:32.390Z,10.94
2016-09-28T03:06:32.387Z,11.07
2016-09-28T03:07:32.373Z,11.06
2016-09-28T03:08:32.374Z,10.92
2016-09-28T03:09:32.362Z,10.92
2016-09-28T03:10:32.347Z,11.03
2016-09-28T03:11:32.345Z,10.91
2016-09-28T03:12:32.339Z,10.91
2016-09-28T03:13:32.325Z,11.03
2016-09-28T03:14:32.337Z,11.03
2016-09-28T03:15:32.319Z,11.02
2016-09-28T03:16:32.304Z,11
2016-09-28T03:17:32.304Z,11.06
2016-09-28T03:18:32.294Z,11.07
2016-09-28T03:19:32.290Z,11.07
2016-09-28T03:20:32.282Z,11.09
2016-09-28T03:21:32.276Z,11.19
2016-09-28T03:22:32.269Z,11.19
2016-09-28T03:23:32.264Z,11.19
2016-09-28T03:24:32.255Z,11.17
2016-09-28T03:25:32.247Z,11.19
2016-09-28T03:26:32.242Z,11.03
2016-09-28T03:27:32.241Z,11.15
2016-09-28T03:28:32.234Z,11.09
2016-09-28T03:29:32.218Z,11.17
2016-09-28T03:30:32.215Z,11.17
2016-09-28T03:31:32.506Z,11.09
2016-09-28T03:32:32.200Z,11.14
2016-09-28T03:33:32.195Z,11.07
2016-09-28T03:34:32.186Z,11.03
2016-09-28T03:35:32.187Z,11.14
2016-09-28T03:36:32.178Z,11.1
2016-09-28T03:37:32.163Z,11.17
2016-09-28T03:38:32.161Z,11.17
2016-09-28T03:39:32.982Z,11.19
2016-09-28T03:40:32.263Z,11.18
2016-09-28T03:41:33.648Z,11.18
2016-09-28T03:42:32.129Z,11.1
2016-09-28T03:43:32.124Z,11.1
2016-09-28T03:44:32.117Z,11.18
2016-09-28T03:45:32.282Z,11.15
2016-09-28T03:46:32.105Z,11.14
2016-09-28T03:47:32.948Z,11.07
2016-09-28T03:49:32.732Z,11.19
2016-09-28T03:50:32.524Z,11.17
2016-09-28T03:51:32.975Z,11.1
2016-09-28T03:52:32.901Z,11.14
2016-09-28T03:53:32.614Z,11.1
2016-09-28T03:54:32.049Z,11.07
2016-09-28T03:55:32.043Z,11.14
2016-09-28T03:56:32.378Z,11.04
2016-09-28T03:57:32.273Z,11.07
2016-09-28T03:58:32.121Z,11.02
2016-09-28T03:59:32.063Z,11.07
2016-09-28T04:00:32.358Z,10.91
2016-09-28T04:01:31.997Z,10.97
2016-09-28T04:02:31.993Z,10.92
2016-09-28T04:03:31.990Z,10.97
2016-09-28T04:04:31.984Z,10.91
2016-09-28T04:05:31.971Z,10.97
2016-09-28T04:06:31.966Z,11.04
2016-09-28T04:07:31.960Z,11.04
2016-09-28T04:08:31.948Z,11.04
2016-09-28T04:09:31.946Z,11.03
2016-09-28T04:10:31.939Z,11.07
2016-09-28T04:11:31.937Z,11.07
2016-09-28T04:12:31.926Z,11.06
2016-09-28T04:13:31.916Z,11.06
2016-09-28T04:14:31.910Z,11.09
2016-09-28T04:15:31.901Z,11.04
2016-09-28T04:16:32.145Z,11.1
2016-09-28T04:17:31.903Z,11.07
2016-09-28T04:18:31.876Z,11.07
2016-09-28T04:19:31.876Z,11.07
2016-09-28T04:20:31.862Z,11.11
2016-09-28T04:21:32.108Z,11.07
2016-09-28T04:22:31.854Z,11.03
2016-09-28T04:23:31.863Z,11.09
2016-09-28T04:24:31.838Z,11.1
2016-09-28T04:25:31.836Z,11.15
2016-09-28T04:26:32.076Z,11.19
2016-09-28T04:27:31.828Z,11.21
2016-09-28T04:28:31.816Z,11.27
2016-09-28T04:29:31.811Z,11.28
2016-09-28T04:30:31.799Z,11.27
2016-09-28T04:31:32.087Z,11.35
2016-09-28T04:32:31.784Z,11.22
2016-09-28T04:33:31.773Z,11.27
2016-09-28T04:34:31.768Z,11.25
2016-09-28T04:35:31.766Z,11.21
2016-09-28T04:36:31.755Z,11.19
2016-09-28T04:37:31.746Z,11.28
2016-09-28T04:38:31.741Z,11.28
2016-09-28T04:39:31.734Z,11.25
2016-09-28T04:40:31.726Z,11.32
2016-09-28T04:41:31.724Z,11.32
2016-09-28T04:42:31.720Z,11.24
2016-09-28T04:43:31.706Z,11.27
2016-09-28T04:44:31.707Z,11.37
2016-09-28T04:45:31.703Z,11.27
2016-09-28T04:46:31.690Z,11.35
2016-09-28T04:47:31.684Z,11.28
2016-09-28T04:48:31.685Z,11.24
2016-09-28T04:49:31.671Z,11.36
2016-09-28T04:50:31.666Z,11.28
2016-09-28T04:51:31.659Z,11.28
2016-09-28T04:52:31.652Z,11.29
2016-09-28T04:53:31.648Z,11.36
2016-09-28T04:54:31.633Z,11.35
2016-09-28T04:55:31.628Z,11.35
2016-09-28T04:56:31.624Z,11.36
2016-09-28T04:57:32.990Z,11.4
2016-09-28T04:58:32.934Z,11.43
2016-09-28T04:59:32.838Z,11.43
2016-09-28T05:00:31.595Z,11.43
2016-09-28T05:01:31.590Z,11.39
2016-09-28T05:02:31.580Z,11.35
2016-09-28T05:03:31.571Z,11.4
2016-09-28T05:04:31.567Z,11.36
2016-09-28T05:07:32.030Z,11.39
2016-09-28T05:09:33.301Z,11.43
2016-09-28T05:10:31.524Z,11.35
2016-09-28T05:11:31.521Z,11.44
2016-09-28T05:12:32.027Z,11.35
2016-09-28T05:13:31.503Z,11.37
2016-09-28T05:14:31.802Z,11.47
2016-09-28T05:15:31.909Z,11.47
2016-09-28T05:16:31.837Z,11.46
2016-09-28T05:17:32.179Z,11.42
2016-09-28T05:18:31.474Z,11.49
2016-09-28T05:19:32.316Z,11.46
2016-09-28T05:20:31.764Z,11.49
2016-09-28T05:21:31.652Z,11.57
2016-09-28T05:22:31.447Z,11.6
2016-09-28T05:23:31.442Z,11.57
2016-09-28T05:24:31.436Z,11.7
2016-09-28T05:25:31.431Z,11.78
2016-09-28T05:26:31.420Z,11.79
2016-09-28T05:27:31.418Z,11.82
2016-09-28T05:28:31.409Z,11.88
2016-09-28T05:29:31.407Z,11.83
2016-09-28T05:30:31.406Z,11.99
2016-09-28T05:31:31.390Z,11.96
2016-09-28T05:32:31.384Z,12.1
2016-09-28T05:33:31.379Z,12.14
2016-09-28T05:34:31.368Z,12.16
2016-09-28T05:35:31.364Z,12.14
2016-09-28T05:36:31.355Z,12.2
2016-09-28T05:37:31.359Z,12.27
2016-09-28T05:38:31.347Z,12.41
2016-09-28T05:39:31.339Z,12.45
2016-09-28T05:40:31.338Z,12.46
2016-09-28T05:41:31.327Z,12.6
2016-09-28T05:42:31.324Z,12.65
2016-09-28T05:43:31.315Z,12.74
2016-09-28T05:44:31.313Z,12.78
2016-09-28T05:45:31.309Z,12.83
2016-09-28T05:46:31.298Z,12.93
2016-09-28T05:47:31.288Z,12.95
2016-09-28T05:48:31.284Z,13.04
2016-09-28T05:49:31.279Z,13.12
2016-09-28T05:50:31.270Z,13.12
2016-09-28T05:51:31.270Z,13.2
2016-09-28T05:52:31.265Z,13.15
2016-09-28T05:53:31.263Z,13.23
2016-09-28T05:54:31.253Z,13.33
2016-09-28T05:55:31.249Z,13.39
2016-09-28T05:56:31.236Z,13.49
2016-09-28T05:57:31.237Z,13.49
2016-09-28T05:58:31.230Z,13.57
2016-09-28T05:59:31.226Z,13.63
2016-09-28T06:00:31.219Z,13.71
2016-09-28T06:01:31.216Z,13.87
2016-09-28T06:02:31.211Z,13.96
2016-09-28T06:03:31.212Z,14.06
2016-09-28T06:04:31.194Z,14.18
2016-09-28T06:05:31.196Z,14.32
2016-09-28T06:06:31.289Z,14.37
2016-09-28T06:07:31.181Z,14.45
2016-09-28T06:08:31.176Z,14.47
2016-09-28T06:09:31.173Z,14.52
2016-09-28T06:10:31.163Z,14.6
2016-09-28T06:11:31.163Z,14.64
2016-09-28T06:12:31.161Z,14.7
2016-09-28T06:13:31.453Z,14.84
2016-09-28T06:14:31.164Z,14.84
2016-09-28T06:15:31.868Z,14.88
2016-09-28T06:16:32.457Z,14.83
2016-09-28T06:17:32.818Z,14.88
2016-09-28T06:18:31.583Z,14.92
2016-09-28T06:19:32.265Z,14.95
2016-09-28T06:20:31.131Z,15.06
2016-09-28T06:21:31.534Z,15.03
2016-09-28T06:22:31.121Z,15.09
2016-09-28T06:25:32.720Z,15.21
2016-09-28T06:26:34.320Z,15.23
2016-09-28T06:27:32.171Z,15.31
2016-09-28T06:28:32.905Z,15.28
2016-09-28T06:29:31.186Z,15.32
2016-09-28T06:30:31.079Z,15.39
2016-09-28T06:31:31.285Z,15.43
2016-09-28T06:32:31.932Z,15.44
2016-09-28T06:33:31.588Z,15.56
2016-09-28T06:34:31.070Z,15.54
2016-09-28T06:35:45.981Z,15.6
2016-09-28T06:36:31.063Z,15.64
2016-09-28T06:37:31.159Z,15.62
2016-09-28T06:38:31.050Z,15.64
2016-09-28T06:39:31.203Z,15.6
2016-09-28T06:40:31.047Z,15.62
2016-09-28T06:41:31.041Z,15.62
2016-09-28T06:42:31.034Z,15.71
2016-09-28T06:43:31.031Z,15.78
2016-09-28T06:44:31.030Z,15.8
2016-09-28T06:45:31.021Z,15.83
2016-09-28T06:46:31.039Z,15.86
2016-09-28T06:47:31.020Z,15.94
2016-09-28T06:48:31.014Z,15.94
2016-09-28T06:49:31.006Z,16.05
2016-09-28T06:50:31.008Z,15.96
2016-09-28T06:51:31.005Z,16.01
2016-09-28T06:52:31.002Z,16.05
2016-09-28T06:53:31.000Z,15.97
2016-09-28T06:54:30.988Z,16.07
2016-09-28T06:55:30.991Z,16.08
2016-09-28T06:56:30.988Z,16.08
2016-09-28T06:57:30.987Z,16.02
2016-09-28T06:58:30.981Z,16.04
2016-09-28T06:59:30.979Z,16.09
2016-09-28T07:00:30.971Z,16.11
2016-09-28T07:01:30.968Z,16.14
2016-09-28T07:02:30.968Z,16.11
2016-09-28T07:03:30.960Z,16.15
2016-09-28T07:04:30.957Z,16.2
2016-09-28T07:05:30.957Z,16.14
2016-09-28T07:06:30.951Z,16.3
2016-09-28T07:07:30.940Z,16.25
2016-09-28T07:08:30.947Z,16.24
2016-09-28T07:09:30.941Z,16.38
2016-09-28T07:10:30.932Z,16.35
2016-09-28T07:11:30.932Z,16.45
2016-09-28T07:12:30.928Z,16.52
2016-09-28T07:13:30.923Z,16.5
2016-09-28T07:14:30.918Z,16.58
2016-09-28T07:15:30.918Z,16.61
2016-09-28T07:16:30.914Z,16.56
2016-09-28T07:17:30.913Z,16.61
2016-09-28T07:18:30.908Z,16.7
2016-09-28T07:19:30.908Z,16.79
2016-09-28T07:20:30.908Z,16.68
2016-09-28T07:21:30.908Z,16.67
2016-09-28T07:22:30.897Z,16.78
2016-09-28T07:23:30.888Z,16.85
2016-09-28T07:24:30.895Z,16.81
2016-09-28T07:25:30.894Z,16.96
2016-09-28T07:26:30.885Z,16.94
2016-09-28T07:27:30.879Z,16.96
2016-09-28T07:28:30.873Z,17.04
2016-09-28T07:29:30.872Z,17.06
2016-09-28T07:30:30.867Z,17.12
2016-09-28T07:31:30.868Z,17.07
2016-09-28T07:32:30.869Z,17.14
2016-09-28T07:33:32.796Z,17.08
2016-09-28T07:35:30.858Z,17.31
2016-09-28T07:36:31.913Z,17.4
2016-09-28T07:37:30.859Z,17.46
2016-09-28T07:38:30.845Z,17.44
2016-09-28T07:39:30.847Z,17.55
2016-09-28T07:40:30.837Z,17.62
2016-09-28T07:41:31.140Z,17.68
2016-09-28T07:43:34.518Z,17.64
2016-09-28T07:44:31.331Z,17.74
2016-09-28T07:45:32.730Z,17.77
2016-09-28T07:46:31.833Z,17.82
2016-09-28T07:47:31.685Z,18.02
2016-09-28T07:48:30.819Z,18.11
2016-09-28T07:49:30.816Z,18.15
2016-09-28T07:50:31.522Z,18.15
2016-09-28T07:51:31.877Z,18.2
2016-09-28T07:52:46.731Z,18.23
2016-09-28T07:53:45.731Z,18.26
2016-09-28T07:54:30.915Z,18.29
2016-09-28T07:55:31.356Z,18.45
2016-09-28T07:56:30.852Z,18.39
2016-09-28T07:57:30.806Z,18.41
2016-09-28T07:58:31.056Z,18.5
2016-09-28T07:59:30.805Z,18.47
2016-09-28T08:00:30.799Z,18.55
2016-09-28T08:01:30.806Z,18.57
2016-09-28T08:02:30.801Z,18.72
2016-09-28T08:03:31.043Z,18.65
2016-09-28T08:04:30.789Z,18.76
2016-09-28T08:05:30.802Z,18.94
2016-09-28T08:06:30.787Z,19.02
2016-09-28T08:07:30.786Z,19
2016-09-28T08:08:31.031Z,19.14
2016-09-28T08:09:30.781Z,19.25
2016-09-28T08:10:30.781Z,19.33
2016-09-28T08:11:30.778Z,19.47
2016-09-28T08:12:30.784Z,19.54
2016-09-28T08:13:30.780Z,19.71
2016-09-28T08:14:30.781Z,19.63
2016-09-28T08:15:30.779Z,19.74
2016-09-28T08:16:30.777Z,19.63
2016-09-28T08:17:30.772Z,19.65
2016-09-28T08:18:30.776Z,19.71
2016-09-28T08:19:30.779Z,19.76
2016-09-28T08:20:30.770Z,19.95
2016-09-28T08:21:30.771Z,19.91
2016-09-28T08:22:30.772Z,20.01
2016-09-28T08:23:30.773Z,20.17
2016-09-28T08:24:30.770Z,20.08
2016-09-28T08:25:30.780Z,20.29
2016-09-28T08:26:30.768Z,20.31
2016-09-28T08:27:30.780Z,20.38
2016-09-28T08:28:30.767Z,20.47
2016-09-28T08:29:30.774Z,20.66
2016-09-28T08:30:30.771Z,20.76
2016-09-28T08:31:30.773Z,20.66
2016-09-28T08:32:30.768Z,20.72
2016-09-28T08:33:30.771Z,20.8
2016-09-28T08:34:30.774Z,20.85
2016-09-28T08:35:30.774Z,20.97
2016-09-28T08:36:30.770Z,20.95
2016-09-28T08:37:30.787Z,21.03
2016-09-28T08:38:30.770Z,21.06
2016-09-28T08:39:30.780Z,21.1
2016-09-28T08:40:30.779Z,21.1
2016-09-28T08:41:30.778Z,21.16
2016-09-28T08:42:30.776Z,21.21
2016-09-28T08:43:30.772Z,21.21
2016-09-28T08:44:30.780Z,21.38
2016-09-28T08:45:31.072Z,21.34
2016-09-28T08:46:30.776Z,21.37
2016-09-28T08:47:30.780Z,21.42
2016-09-28T08:48:30.781Z,21.4
2016-09-28T08:49:30.781Z,21.43
2016-09-28T08:50:30.781Z,21.49
2016-09-28T08:51:32.235Z,21.53
2016-09-28T08:52:31.217Z,21.56
2016-09-28T08:53:30.788Z,21.5
2016-09-28T08:54:30.788Z,21.54
2016-09-28T08:55:31.498Z,21.62
2016-09-28T08:56:30.795Z,21.67
2016-09-28T08:57:30.784Z,21.68
2016-09-28T08:58:31.036Z,21.72
2016-09-28T08:59:31.740Z,21.8
2016-09-28T09:00:32.664Z,21.9
2016-09-28T09:01:46.406Z,21.88
2016-09-28T09:02:31.544Z,21.86
2016-09-28T09:03:31.090Z,21.82
2016-09-28T09:04:30.803Z,21.92
2016-09-28T09:05:30.797Z,21.98
2016-09-28T09:06:30.812Z,22.02
2016-09-28T09:07:30.797Z,22.03
2016-09-28T09:08:32.273Z,22.07
2016-09-28T09:09:31.352Z,22.06
2016-09-28T09:10:30.853Z,22.12
2016-09-28T09:11:30.804Z,22.1
2016-09-28T09:12:31.308Z,22.09
2016-09-28T09:13:32.005Z,22.07
2016-09-28T09:14:31.004Z,22.14
2016-09-28T09:15:30.810Z,22.22
2016-09-28T09:16:30.813Z,22.27
2016-09-28T09:17:30.815Z,22.33
2016-09-28T09:18:31.117Z,22.31
2016-09-28T09:19:30.820Z,22.47
2016-09-28T09:20:30.822Z,22.47
2016-09-28T09:21:30.821Z,22.57
2016-09-28T09:22:30.817Z,22.58
2016-09-28T09:23:30.820Z,22.51
2016-09-28T09:24:30.822Z,22.49
2016-09-28T09:25:30.825Z,22.49
2016-09-28T09:26:30.831Z,22.51
2016-09-28T09:27:30.830Z,22.47
2016-09-28T09:28:30.833Z,22.55
2016-09-28T09:29:30.834Z,22.46
2016-09-28T09:30:30.831Z,22.45
2016-09-28T09:31:30.838Z,22.49
2016-09-28T09:32:30.839Z,22.55
2016-09-28T09:33:30.843Z,22.62
2016-09-28T09:34:30.848Z,22.77
2016-09-28T09:35:30.843Z,22.9
2016-09-28T09:36:30.854Z,22.91
2016-09-28T09:37:30.850Z,22.85
2016-09-28T09:38:30.857Z,22.9
2016-09-28T09:39:30.854Z,22.82
2016-09-28T09:40:30.860Z,22.86
2016-09-28T09:41:30.856Z,22.86
2016-09-28T09:42:30.860Z,22.94
2016-09-28T09:43:30.865Z,22.9
2016-09-28T09:44:30.859Z,22.86
2016-09-28T09:45:30.869Z,22.9
2016-09-28T09:46:30.872Z,22.98
2016-09-28T09:47:30.888Z,23.05
2016-09-28T09:48:30.874Z,23.19
2016-09-28T09:49:30.878Z,23.36
2016-09-28T09:50:30.883Z,23.51
2016-09-28T09:51:30.883Z,23.72
2016-09-28T09:52:30.879Z,23.78
2016-09-28T09:53:30.889Z,23.79
2016-09-28T09:54:30.904Z,23.97
2016-09-28T09:55:31.194Z,24.09
2016-09-28T09:56:30.893Z,24.1
2016-09-28T09:57:30.894Z,23.98
2016-09-28T09:58:30.903Z,23.98
2016-09-28T09:59:30.902Z,23.94
2016-09-28T10:00:30.905Z,23.84
2016-09-28T10:01:30.908Z,23.78
2016-09-28T10:02:30.917Z,23.66
2016-09-28T10:03:30.913Z,23.68
2016-09-28T10:04:31.214Z,23.65
2016-09-28T10:05:30.923Z,23.65
2016-09-28T10:06:30.919Z,23.72
2016-09-28T10:07:30.931Z,23.83
2016-09-28T10:08:30.936Z,23.84
2016-09-28T10:10:30.935Z,23.95
2016-09-28T10:11:32.108Z,23.98
2016-09-28T10:12:31.633Z,23.91
2016-09-28T10:13:30.939Z,23.8
2016-09-28T10:14:31.061Z,23.83
2016-09-28T10:15:31.012Z,23.76
2016-09-28T10:16:30.948Z,23.79
2016-09-28T10:17:45.870Z,23.83
2016-09-28T10:18:47.250Z,23.7
2016-09-28T10:19:31.814Z,23.72
2016-09-28T10:20:46.559Z,23.69
2016-09-28T10:21:32.561Z,23.76
2016-09-28T10:22:31.060Z,23.8
2016-09-28T10:23:32.333Z,23.84
2016-09-28T10:24:31.219Z,23.75
2016-09-28T10:25:30.978Z,23.83
2016-09-28T10:27:45.900Z,23.72
2016-09-28T10:29:31.679Z,23.63
2016-09-28T10:30:31.337Z,23.54
2016-09-28T10:31:32.151Z,23.48
2016-09-28T10:32:30.997Z,23.43
2016-09-28T10:33:30.997Z,23.27
2016-09-28T10:34:30.997Z,23.32
2016-09-28T10:35:30.996Z,23.27
2016-09-28T10:36:31.002Z,23.23
2016-09-28T10:37:31.004Z,23.04
2016-09-28T10:38:31.004Z,23.07
2016-09-28T10:39:31.007Z,23.04
2016-09-28T10:40:31.007Z,23.05
2016-09-28T10:41:31.008Z,23
2016-09-28T10:42:31.015Z,22.85
2016-09-28T10:43:31.016Z,22.85
2016-09-28T10:44:31.012Z,22.91
2016-09-28T10:45:31.012Z,22.94
2016-09-28T10:46:31.015Z,22.88
2016-09-28T10:47:31.029Z,22.97
2016-09-28T10:48:31.022Z,22.98
2016-09-28T10:49:31.022Z,23.09
2016-09-28T10:50:31.027Z,23.02
2016-09-28T10:51:31.026Z,23.04
2016-09-28T10:52:31.026Z,23.07
2016-09-28T10:53:31.031Z,23.13
2016-09-28T10:54:31.033Z,23.04
2016-09-28T10:55:31.034Z,23.1
2016-09-28T10:56:31.033Z,23.2
2016-09-28T10:57:31.033Z,23.05
2016-09-28T10:58:31.044Z,23.09
2016-09-28T10:59:31.043Z,23.02
2016-09-28T11:00:31.048Z,23.07
2016-09-28T11:01:31.049Z,23.05
2016-09-28T11:02:31.045Z,23.02
2016-09-28T11:03:31.047Z,22.95
2016-09-28T11:04:31.045Z,22.98
2016-09-28T11:05:31.051Z,22.97
2016-09-28T11:06:31.055Z,22.91
2016-09-28T11:07:31.049Z,22.9
2016-09-28T11:08:31.055Z,22.86
2016-09-28T11:09:31.054Z,22.85
2016-09-28T11:10:31.062Z,22.82
2016-09-28T11:11:31.064Z,22.77
2016-09-28T11:12:31.059Z,22.8
2016-09-28T11:13:31.065Z,22.83
2016-09-28T11:14:31.068Z,22.86
2016-09-28T11:15:31.069Z,22.9
2016-09-28T11:16:31.069Z,22.9
2016-09-28T11:17:31.072Z,22.82
2016-09-28T11:18:31.070Z,22.91
2016-09-28T11:19:31.089Z,22.82
2016-09-28T11:20:31.083Z,22.76
2016-09-28T11:21:31.073Z,22.76
2016-09-28T11:22:31.077Z,22.8
2016-09-28T11:23:31.078Z,22.8
2016-09-28T11:24:31.081Z,22.77
2016-09-28T11:25:31.086Z,22.76
2016-09-28T11:26:31.081Z,22.75
2016-09-28T11:27:32.612Z,22.73
2016-09-28T11:28:32.648Z,22.77
2016-09-28T11:29:32.438Z,22.88
2016-09-28T11:30:32.307Z,22.9
2016-09-28T11:31:31.850Z,22.88
2016-09-28T11:32:31.089Z,22.91
2016-09-28T11:33:31.098Z,22.9
2016-09-28T11:34:31.091Z,23.01
2016-09-28T11:35:47.299Z,22.95
2016-09-28T11:36:33.828Z,23.17
2016-09-28T11:37:33.628Z,23.23
2016-09-28T11:38:46.013Z,23.47
2016-09-28T11:39:31.537Z,23.54
2016-09-28T11:40:31.104Z,23.83
2016-09-28T11:41:31.868Z,23.98
2016-09-28T11:42:31.310Z,24.13
2016-09-28T11:43:31.109Z,24.31
2016-09-28T11:44:32.471Z,24.35
2016-09-28T11:45:46.028Z,24.53
2016-09-28T11:46:31.932Z,24.53
2016-09-28T11:47:31.824Z,24.61
2016-09-28T11:48:31.122Z,24.67
2016-09-28T11:49:31.576Z,24.73
2016-09-28T11:50:31.575Z,24.67
2016-09-28T11:51:31.130Z,24.78
2016-09-28T11:52:31.138Z,24.71
2016-09-28T11:53:31.136Z,24.85
2016-09-28T11:54:31.142Z,24.85
2016-09-28T11:55:31.143Z,24.87
2016-09-28T11:56:31.145Z,24.9
2016-09-28T11:57:31.148Z,24.91
2016-09-28T11:58:31.153Z,24.93
2016-09-28T11:59:31.156Z,25.05
2016-09-28T12:00:31.160Z,24.93
2016-09-28T12:01:31.169Z,25
2016-09-28T12:02:31.170Z,25.02
2016-09-28T12:03:31.376Z,25.05
2016-09-28T12:04:31.183Z,25.08
2016-09-28T12:05:31.178Z,25.13
2016-09-28T12:06:31.182Z,25.17
2016-09-28T12:07:31.184Z,25.27
2016-09-28T12:08:31.187Z,25.17
2016-09-28T12:09:31.194Z,25.3
2016-09-28T12:10:31.196Z,25.4
2016-09-28T12:11:31.497Z,25.39
2016-09-28T12:12:31.212Z,25.32
2016-09-28T12:13:31.208Z,25.39
2016-09-28T12:14:31.218Z,25.42
2016-09-28T12:15:31.221Z,25.38
2016-09-28T12:16:31.229Z,25.33
2016-09-28T12:17:31.230Z,25.39
2016-09-28T12:18:31.236Z,25.39
2016-09-28T12:19:31.235Z,25.33
2016-09-28T12:20:31.236Z,25.32
2016-09-28T12:21:31.252Z,25.2
2016-09-28T12:22:31.249Z,25.21
2016-09-28T12:23:31.260Z,25.17
2016-09-28T12:24:31.262Z,25.13
2016-09-28T12:25:31.269Z,25.08
2016-09-28T12:26:31.257Z,24.95
2016-09-28T12:27:31.276Z,24.96
2016-09-28T12:28:31.266Z,24.95
2016-09-28T12:29:31.274Z,24.91
2016-09-28T12:30:31.275Z,24.81
2016-09-28T12:31:31.277Z,24.91
2016-09-28T12:32:31.286Z,24.81
2016-09-28T12:33:31.290Z,24.78
2016-09-28T12:34:31.287Z,24.83
2016-09-28T12:35:31.297Z,24.81
2016-09-28T12:36:31.307Z,24.73
2016-09-28T12:37:31.310Z,24.8
2016-09-28T12:38:31.311Z,24.76
2016-09-28T12:39:31.317Z,24.81
2016-09-28T12:40:31.321Z,24.83
2016-09-28T12:41:31.323Z,24.77
2016-09-28T12:42:31.319Z,24.73
2016-09-28T12:43:31.334Z,24.68
2016-09-28T12:44:31.328Z,24.58
2016-09-28T12:45:32.855Z,24.58
2016-09-28T12:46:33.202Z,24.71
2016-09-28T12:47:31.487Z,24.71
2016-09-28T12:48:31.721Z,24.83
2016-09-28T12:49:31.574Z,24.84
2016-09-28T12:50:31.354Z,24.84
2016-09-28T12:51:31.357Z,24.85
2016-09-28T12:52:31.359Z,24.87
2016-09-28T12:54:46.283Z,24.87
2016-09-28T12:55:32.590Z,24.85
2016-09-28T12:56:32.891Z,24.8
2016-09-28T12:57:31.377Z,24.78
2016-09-28T12:58:33.165Z,24.84
2016-09-28T12:59:32.001Z,24.78
2016-09-28T13:00:32.302Z,24.69
2016-09-28T13:01:31.401Z,24.76
2016-09-28T13:02:32.400Z,24.69
2016-09-28T13:03:32.304Z,24.71
2016-09-28T13:04:32.802Z,24.71
2016-09-28T13:05:32.208Z,24.76
2016-09-28T13:07:31.413Z,24.85
2016-09-28T13:08:31.415Z,24.84
2016-09-28T13:09:31.665Z,24.83
2016-09-28T13:10:31.420Z,24.88
2016-09-28T13:11:31.428Z,24.85
2016-09-28T13:12:31.443Z,24.8
2016-09-28T13:13:31.443Z,24.81